createdAt,value
2023-12-18T00:00:28.477Z,3.13
2023-12-18T00:02:55.309Z,3.63
2023-12-18T00:05:22.072Z,3.72
2023-12-18T00:07:48.851Z,3.10
2023-12-18T00:10:15.938Z,4.45
2023-12-18T00:12:42.672Z,4.00
2023-12-18T00:15:09.971Z,3.75
2023-12-18T00:17:36.855Z,3.47
2023-12-18T00:20:05.539Z,3.67
2023-12-18T00:22:32.628Z,3.15
2023-12-18T00:24:59.415Z,3.25
2023-12-18T00:27:27.238Z,4.22
2023-12-18T00:29:54.409Z,3.63
2023-12-18T00:32:21.339Z,3.92
2023-12-18T00:34:48.308Z,3.38
2023-12-18T00:37:15.426Z,5.07
2023-12-18T00:39:42.170Z,4.55
2023-12-18T00:42:09.055Z,3.75
2023-12-18T00:44:35.930Z,3.30
2023-12-18T00:47:03.990Z,4.07
2023-12-18T00:49:33.663Z,4.20
2023-12-18T00:52:00.903Z,4.22
2023-12-18T00:54:27.881Z,5.32
2023-12-18T00:56:54.841Z,3.97
2023-12-18T00:59:21.588Z,4.25
2023-12-18T01:01:48.673Z,4.57
2023-12-18T01:06:42.204Z,5.43
2023-12-18T01:09:09.793Z,5.28
2023-12-18T01:11:36.990Z,5.75
2023-12-18T01:14:03.813Z,5.72
2023-12-18T01:16:30.680Z,5.05
2023-12-18T01:18:57.579Z,4.68
2023-12-18T01:21:24.564Z,4.82
2023-12-18T01:23:51.333Z,5.53
2023-12-18T01:26:18.196Z,6.30
2023-12-18T01:28:44.872Z,4.70
2023-12-18T01:31:22.050Z,5.93
2023-12-18T01:33:49.317Z,7.38
2023-12-18T01:36:16.315Z,6.32
2023-12-18T01:38:43.147Z,6.20
2023-12-18T01:41:09.865Z,5.72
2023-12-18T01:43:36.597Z,5.93
2023-12-18T01:46:04.501Z,6.75
2023-12-18T01:48:32.697Z,6.28
2023-12-18T01:51:01.037Z,7.60
2023-12-18T01:53:35.948Z,8.15
2023-12-18T01:56:04.021Z,7.68
2023-12-18T01:58:33.246Z,5.70
2023-12-18T02:01:01.671Z,6.47
2023-12-18T02:03:30.499Z,6.15
2023-12-18T02:05:58.199Z,6.47
2023-12-18T02:08:26.100Z,6.35
2023-12-18T02:10:54.235Z,6.43
2023-12-18T02:13:21.055Z,6.45
2023-12-18T02:15:48.085Z,5.82
2023-12-18T02:18:15.118Z,6.75
2023-12-18T02:20:43.189Z,6.38
2023-12-18T02:23:11.110Z,7.25
2023-12-18T02:25:38.299Z,5.95
2023-12-18T02:28:08.681Z,5.82
2023-12-18T02:30:35.551Z,6.47
2023-12-18T02:33:02.577Z,6.13
2023-12-18T02:35:29.619Z,6.82
2023-12-18T02:37:56.387Z,6.38
2023-12-18T02:40:24.762Z,6.32
2023-12-18T02:42:51.597Z,6.88
2023-12-18T02:45:18.490Z,6.68
2023-12-18T02:47:45.494Z,6.13
2023-12-18T02:50:12.671Z,6.72
2023-12-18T02:52:39.379Z,5.35
2023-12-18T02:55:06.343Z,7.00
2023-12-18T02:57:33.125Z,6.93
2023-12-18T02:59:59.971Z,6.57
2023-12-18T03:02:26.693Z,7.05
2023-12-18T03:04:53.472Z,6.95
2023-12-18T03:07:20.239Z,6.05
2023-12-18T03:09:47.126Z,5.78
2023-12-18T03:12:13.904Z,6.32
2023-12-18T03:14:40.571Z,7.03
2023-12-18T03:17:07.311Z,7.20
2023-12-18T03:19:34.115Z,6.90
2023-12-18T03:22:00.942Z,7.28
2023-12-18T03:24:27.703Z,7.35
2023-12-18T03:26:54.415Z,7.97
2023-12-18T03:29:21.298Z,6.90
2023-12-18T03:31:47.989Z,6.00
2023-12-18T03:34:14.795Z,7.00
2023-12-18T03:36:41.573Z,6.72
2023-12-18T03:39:08.382Z,6.80
2023-12-18T03:41:35.127Z,6.85
2023-12-18T03:44:01.881Z,7.15
2023-12-18T03:46:28.544Z,6.43
2023-12-18T03:48:55.437Z,5.68
2023-12-18T03:51:22.265Z,6.75
2023-12-18T03:53:49.041Z,6.45
2023-12-18T03:56:15.756Z,6.38
2023-12-18T03:58:42.429Z,6.40
2023-12-18T04:01:09.380Z,6.10
2023-12-18T04:03:36.332Z,6.93
2023-12-18T04:06:03.292Z,7.18
2023-12-18T04:08:29.997Z,6.63
2023-12-18T04:10:56.784Z,5.68
2023-12-18T04:13:24.441Z,6.22
2023-12-18T04:15:51.318Z,6.05
2023-12-18T04:18:18.227Z,6.95
2023-12-18T04:20:45.020Z,7.10
2023-12-18T04:23:12.238Z,6.80
2023-12-18T04:25:38.982Z,5.85
2023-12-18T04:28:06.042Z,5.55
2023-12-18T04:30:32.980Z,7.00
2023-12-18T04:33:00.464Z,7.82
2023-12-18T04:35:27.212Z,7.07
2023-12-18T04:37:54.007Z,7.40
2023-12-18T04:40:20.720Z,6.85
2023-12-18T04:42:47.755Z,6.80
2023-12-18T04:45:14.667Z,6.40
2023-12-18T04:47:41.683Z,6.90
2023-12-18T04:50:08.623Z,7.25
2023-12-18T04:52:35.345Z,6.40
2023-12-18T04:55:02.072Z,6.43
2023-12-18T04:57:28.859Z,7.40
2023-12-18T04:59:55.689Z,6.57
2023-12-18T05:02:22.718Z,6.65
2023-12-18T05:04:49.539Z,5.40
2023-12-18T05:07:16.541Z,5.57
2023-12-18T05:09:44.670Z,6.90
2023-12-18T05:12:12.076Z,6.28
2023-12-18T05:14:38.793Z,5.88
2023-12-18T05:17:05.544Z,5.05
2023-12-18T05:19:32.285Z,7.47
2023-12-18T05:21:59.035Z,6.18
2023-12-18T05:24:25.725Z,6.43
2023-12-18T05:26:52.436Z,6.90
2023-12-18T05:29:19.129Z,6.22
2023-12-18T05:31:45.950Z,5.88
2023-12-18T05:34:12.807Z,5.93
2023-12-18T05:36:39.720Z,6.05
2023-12-18T05:39:06.518Z,5.88
2023-12-18T05:41:33.300Z,7.15
2023-12-18T05:43:59.959Z,6.18
2023-12-18T05:46:26.695Z,6.22
2023-12-18T05:48:53.645Z,5.35
2023-12-18T05:51:23.687Z,6.13
2023-12-18T05:53:50.667Z,6.25
2023-12-18T05:56:17.902Z,5.95
2023-12-18T05:58:44.749Z,5.63
2023-12-18T06:01:11.626Z,6.25
2023-12-18T06:03:38.460Z,6.28
2023-12-18T06:06:05.435Z,6.10
2023-12-18T06:08:32.278Z,6.63
2023-12-18T06:10:58.944Z,5.40
2023-12-18T06:13:25.727Z,6.80
2023-12-18T06:15:52.489Z,6.30
2023-12-18T06:18:19.459Z,6.15
2023-12-18T06:20:46.261Z,6.43
2023-12-18T06:23:12.929Z,6.25
2023-12-18T06:25:39.609Z,6.47
2023-12-18T06:28:06.700Z,6.97
2023-12-18T06:30:33.483Z,7.32
2023-12-18T06:33:00.395Z,6.68
2023-12-18T06:35:27.189Z,7.05
2023-12-18T06:37:53.994Z,5.60
2023-12-18T06:40:20.710Z,7.75
2023-12-18T06:42:47.484Z,7.15
2023-12-18T06:45:14.448Z,7.10
2023-12-18T06:47:41.201Z,7.18
2023-12-18T06:50:08.230Z,7.60
2023-12-18T06:52:34.938Z,7.47
2023-12-18T06:55:01.668Z,7.40
2023-12-18T06:57:28.638Z,8.10
2023-12-18T06:59:55.436Z,7.60
2023-12-18T07:02:22.128Z,7.90
2023-12-18T07:04:48.890Z,9.07
2023-12-18T07:07:15.798Z,7.65
2023-12-18T07:09:42.515Z,7.47
2023-12-18T07:12:09.457Z,7.47
2023-12-18T07:14:38.064Z,8.60
2023-12-18T07:17:04.997Z,7.35
2023-12-18T07:19:31.840Z,8.27
2023-12-18T07:21:59.024Z,7.85
2023-12-18T07:24:25.817Z,9.30
2023-12-18T07:26:52.539Z,7.53
2023-12-18T07:29:19.399Z,8.98
2023-12-18T07:31:46.165Z,9.55
2023-12-18T07:34:13.049Z,9.15
2023-12-18T07:36:41.654Z,8.75
2023-12-18T07:39:08.784Z,8.18
2023-12-18T07:41:35.842Z,9.18
2023-12-18T07:44:02.588Z,9.27
2023-12-18T07:46:29.272Z,8.60
2023-12-18T07:48:56.230Z,9.82
2023-12-18T07:51:23.081Z,9.10
2023-12-18T07:53:50.436Z,8.68
2023-12-18T07:56:17.160Z,9.35
2023-12-18T07:58:43.828Z,9.70
2023-12-18T08:01:10.724Z,9.82
2023-12-18T08:03:37.883Z,10.88
2023-12-18T08:06:04.902Z,9.20
2023-12-18T08:08:31.602Z,8.43
2023-12-18T08:10:58.319Z,9.75
2023-12-18T08:13:25.075Z,8.75
2023-12-18T08:15:52.026Z,10.10
2023-12-18T08:18:19.009Z,9.00
2023-12-18T08:20:46.006Z,10.05
2023-12-18T08:23:12.692Z,10.48
2023-12-18T08:25:39.379Z,9.40
2023-12-18T08:28:06.218Z,9.95
2023-12-18T08:30:33.034Z,11.25
2023-12-18T08:33:00.145Z,10.38
2023-12-18T08:35:27.065Z,11.13
2023-12-18T08:37:53.722Z,9.88
2023-12-18T08:40:21.592Z,10.73
2023-12-18T08:42:48.458Z,9.68
2023-12-18T08:45:15.188Z,10.70
2023-12-18T08:47:42.025Z,10.43
2023-12-18T08:50:10.271Z,10.18
2023-12-18T08:52:38.459Z,9.80
2023-12-18T08:55:05.586Z,9.50
2023-12-18T08:57:32.450Z,10.70
2023-12-18T08:59:59.182Z,10.25
2023-12-18T09:02:25.910Z,9.88
2023-12-18T09:04:52.858Z,10.32
2023-12-18T09:07:19.664Z,9.70
2023-12-18T09:09:46.429Z,10.13
2023-12-18T09:12:13.799Z,9.90
2023-12-18T09:14:40.540Z,8.70
2023-12-18T09:17:07.263Z,9.90
2023-12-18T09:19:34.146Z,8.52
2023-12-18T09:22:03.016Z,10.52
2023-12-18T09:24:31.489Z,9.55
2023-12-18T09:26:58.625Z,10.13
2023-12-18T09:29:25.361Z,9.50
2023-12-18T09:31:52.167Z,10.55
2023-12-18T09:34:19.294Z,9.32
2023-12-18T09:36:46.171Z,8.43
2023-12-18T09:39:13.000Z,8.55
2023-12-18T09:41:39.733Z,9.43
2023-12-18T09:44:06.595Z,10.90
2023-12-18T09:46:33.388Z,9.10
2023-12-18T09:49:00.363Z,9.25
2023-12-18T09:51:27.387Z,9.38
2023-12-18T09:53:55.156Z,8.70
2023-12-18T09:56:23.821Z,9.35
2023-12-18T09:58:53.109Z,10.00
2023-12-18T10:01:20.105Z,9.93
2023-12-18T10:03:46.939Z,9.07
2023-12-18T10:06:15.330Z,9.48
2023-12-18T10:08:42.927Z,9.05
2023-12-18T10:11:25.154Z,8.60
2023-12-18T10:16:19.312Z,9.75
2023-12-18T10:18:46.925Z,9.45
2023-12-18T10:21:14.104Z,8.77
2023-12-18T10:23:40.877Z,9.43
2023-12-18T10:26:07.682Z,10.50
2023-12-18T10:28:34.421Z,9.07
2023-12-18T10:31:01.381Z,10.00
2023-12-18T10:33:29.475Z,9.75
2023-12-18T10:35:59.003Z,8.75
2023-12-18T10:38:31.085Z,10.15
2023-12-18T10:43:28.984Z,10.20
2023-12-18T10:45:58.502Z,8.55
2023-12-18T10:48:26.722Z,10.18
2023-12-18T10:50:56.591Z,9.02
2023-12-18T10:53:24.496Z,9.85
2023-12-18T10:55:53.337Z,9.13
2023-12-18T10:58:21.049Z,8.88
2023-12-18T11:00:49.908Z,10.02
2023-12-18T11:03:19.721Z,8.20
2023-12-18T11:05:49.284Z,9.55
2023-12-18T11:08:16.018Z,9.18
2023-12-18T11:10:42.987Z,8.60
2023-12-18T11:13:27.578Z,8.95
2023-12-18T11:16:26.324Z,9.43
2023-12-18T11:19:27.121Z,9.30
2023-12-18T11:21:55.241Z,9.38
2023-12-18T11:24:21.988Z,9.45
2023-12-18T11:26:49.826Z,9.30
2023-12-18T11:29:38.581Z,9.18
2023-12-18T11:32:05.806Z,9.23
2023-12-18T11:34:33.075Z,8.45
2023-12-18T11:37:00.476Z,9.30
2023-12-18T11:39:43.067Z,9.40
2023-12-18T11:42:12.151Z,10.55
2023-12-18T11:44:39.770Z,9.00
2023-12-18T11:47:08.031Z,9.15
2023-12-18T11:49:35.873Z,9.18
2023-12-18T11:52:26.611Z,9.60
2023-12-18T11:54:53.312Z,9.05
2023-12-18T11:57:23.414Z,10.23
2023-12-18T11:59:51.252Z,8.00
2023-12-18T12:02:19.035Z,9.30
2023-12-18T12:04:47.322Z,9.38
2023-12-18T12:07:14.184Z,9.35
2023-12-18T12:09:43.647Z,8.52
2023-12-18T12:12:12.629Z,8.40
2023-12-18T12:14:39.966Z,8.82
2023-12-18T12:17:06.793Z,9.73
2023-12-18T12:19:36.796Z,10.68
2023-12-18T12:22:04.156Z,10.13
2023-12-18T12:24:31.222Z,9.23
2023-12-18T12:26:58.096Z,8.88
2023-12-18T12:29:27.235Z,9.27
2023-12-18T12:32:00.307Z,9.43
2023-12-18T12:34:36.057Z,9.02
2023-12-18T12:37:05.843Z,9.90
2023-12-18T12:39:35.698Z,10.05
2023-12-18T12:42:02.440Z,10.07
2023-12-18T12:44:29.256Z,9.27
2023-12-18T12:46:56.093Z,9.70
2023-12-18T12:49:23.163Z,9.10
2023-12-18T12:51:50.237Z,11.32
2023-12-18T12:54:17.134Z,9.25
2023-12-18T12:56:46.288Z,9.00
2023-12-18T12:59:13.054Z,9.75
2023-12-18T13:01:39.898Z,9.63
2023-12-18T13:04:06.926Z,10.15
2023-12-18T13:06:33.796Z,9.43
2023-12-18T13:09:00.527Z,8.38
2023-12-18T13:11:28.036Z,9.32
2023-12-18T13:14:05.102Z,9.63
2023-12-18T13:16:35.789Z,8.93
2023-12-18T13:19:02.859Z,8.77
2023-12-18T13:21:29.748Z,10.75
2023-12-18T13:23:57.536Z,8.88
2023-12-18T13:26:24.494Z,9.50
2023-12-18T13:28:51.208Z,10.23
2023-12-18T13:31:18.001Z,10.88
2023-12-18T13:33:47.376Z,8.80
2023-12-18T13:36:14.938Z,9.90
2023-12-18T13:38:41.761Z,8.82
2023-12-18T13:41:08.434Z,8.63
2023-12-18T13:43:35.144Z,10.18
2023-12-18T13:46:02.123Z,10.52
2023-12-18T13:48:28.948Z,10.32
2023-12-18T13:50:57.065Z,10.05
2023-12-18T13:53:23.789Z,9.45
2023-12-18T13:55:50.563Z,9.57
2023-12-18T13:58:17.418Z,10.25
2023-12-18T14:00:47.116Z,9.75
2023-12-18T14:03:17.398Z,9.52
2023-12-18T14:05:44.196Z,9.02
2023-12-18T14:08:10.882Z,10.45
2023-12-18T14:10:37.884Z,9.27
2023-12-18T14:13:04.702Z,10.65
2023-12-18T14:15:31.596Z,8.88
2023-12-18T14:17:58.874Z,8.07
2023-12-18T14:20:25.729Z,10.13
2023-12-18T14:22:52.421Z,9.55
2023-12-18T14:25:19.148Z,8.98
2023-12-18T14:27:46.019Z,8.88
2023-12-18T14:30:13.593Z,9.73
2023-12-18T14:32:41.631Z,8.77
2023-12-18T14:35:09.044Z,9.38
2023-12-18T14:37:35.885Z,9.82
2023-12-18T14:40:04.031Z,11.45
2023-12-18T14:42:31.202Z,10.23
2023-12-18T14:44:59.211Z,9.43
2023-12-18T14:47:26.066Z,9.70
2023-12-18T14:49:53.099Z,9.77
2023-12-18T14:52:19.923Z,9.35
2023-12-18T14:54:46.759Z,9.70
2023-12-18T14:57:13.560Z,9.48
2023-12-18T14:59:40.282Z,8.70
2023-12-18T15:02:07.084Z,9.45
2023-12-18T15:04:34.675Z,9.60
2023-12-18T15:07:01.623Z,10.27
2023-12-18T15:09:29.597Z,9.68
2023-12-18T15:11:56.793Z,8.35
2023-12-18T15:14:23.586Z,9.07
2023-12-18T15:16:50.857Z,8.95
2023-12-18T15:19:17.786Z,9.77
2023-12-18T15:21:44.646Z,9.20
2023-12-18T15:24:13.493Z,10.10
2023-12-18T15:26:40.236Z,9.00
2023-12-18T15:29:07.096Z,8.65
2023-12-18T15:31:33.999Z,8.77
2023-12-18T15:34:03.588Z,9.85
2023-12-18T15:36:32.961Z,9.45
2023-12-18T15:38:59.748Z,8.57
2023-12-18T15:41:27.873Z,9.43
2023-12-18T15:43:54.605Z,9.23
2023-12-18T15:46:21.306Z,9.00
2023-12-18T15:48:48.282Z,9.07
2023-12-18T15:51:15.131Z,9.65
2023-12-18T15:53:45.339Z,8.98
2023-12-18T15:56:12.618Z,9.07
2023-12-18T15:58:40.060Z,8.82
2023-12-18T16:01:06.873Z,10.30
2023-12-18T16:03:34.591Z,8.63
2023-12-18T16:06:01.357Z,7.95
2023-12-18T16:08:28.209Z,9.15
2023-12-18T16:10:55.006Z,9.77
2023-12-18T16:13:22.537Z,7.82
2023-12-18T16:15:49.287Z,8.98
2023-12-18T16:18:16.205Z,8.70
2023-12-18T16:20:43.009Z,10.55
2023-12-18T16:23:11.044Z,9.48
2023-12-18T16:25:37.932Z,7.72
2023-12-18T16:28:05.081Z,9.02
2023-12-18T16:30:38.617Z,8.90
2023-12-18T16:33:09.183Z,8.60
2023-12-18T16:35:36.050Z,8.15
2023-12-18T16:38:02.855Z,7.75
2023-12-18T16:40:29.711Z,7.45
2023-12-18T16:42:56.460Z,8.20
2023-12-18T16:45:24.097Z,8.45
2023-12-18T16:47:50.970Z,9.45
2023-12-18T16:50:17.787Z,9.07
2023-12-18T16:52:44.899Z,7.28
2023-12-18T16:55:13.421Z,8.82
2023-12-18T16:57:40.662Z,8.18
2023-12-18T17:00:12.804Z,7.75
2023-12-18T17:02:41.405Z,8.07
2023-12-18T17:05:08.914Z,8.55
2023-12-18T17:07:35.756Z,8.82
2023-12-18T17:10:03.071Z,8.20
2023-12-18T17:12:30.921Z,9.40
2023-12-18T17:14:57.790Z,8.43
2023-12-18T17:17:25.788Z,8.27
2023-12-18T17:19:52.701Z,8.48
2023-12-18T17:22:19.637Z,7.63
2023-12-18T17:24:46.390Z,9.02
2023-12-18T17:27:13.219Z,9.98
2023-12-18T17:29:40.553Z,7.70
2023-12-18T17:32:07.844Z,9.75
2023-12-18T17:34:34.792Z,9.43
2023-12-18T17:37:01.670Z,8.35
2023-12-18T17:39:28.474Z,10.00
2023-12-18T17:41:55.666Z,9.90
2023-12-18T17:44:22.554Z,8.95
2023-12-18T17:46:49.341Z,9.15
2023-12-18T17:49:16.150Z,9.35
2023-12-18T17:51:44.004Z,8.93
2023-12-18T17:54:10.775Z,7.68
2023-12-18T17:56:37.536Z,9.13
2023-12-18T17:59:04.236Z,8.50
2023-12-18T18:01:30.934Z,8.23
2023-12-18T18:03:57.743Z,8.15
2023-12-18T18:06:24.939Z,8.82
2023-12-18T18:08:51.671Z,8.13
2023-12-18T18:11:18.438Z,7.88
2023-12-18T18:13:45.184Z,7.10
2023-12-18T18:16:12.226Z,7.60
2023-12-18T18:18:39.091Z,8.35
2023-12-18T18:21:05.873Z,7.25
2023-12-18T18:23:33.403Z,8.20
2023-12-18T18:26:00.266Z,7.22
2023-12-18T18:28:27.017Z,8.40
2023-12-18T18:30:56.425Z,7.88
2023-12-18T18:33:23.297Z,7.38
2023-12-18T18:35:50.273Z,7.03
2023-12-18T18:38:17.028Z,8.52
2023-12-18T18:40:44.034Z,8.98
2023-12-18T18:43:10.736Z,7.75
2023-12-18T18:45:39.789Z,8.02
2023-12-18T18:48:07.636Z,8.32
2023-12-18T18:50:37.657Z,7.40
2023-12-18T18:53:06.545Z,7.90
2023-12-18T18:55:33.546Z,7.78
2023-12-18T18:58:00.414Z,8.57
2023-12-18T19:00:27.291Z,9.23
2023-12-18T19:02:57.715Z,8.23
2023-12-18T19:05:24.614Z,7.10
2023-12-18T19:07:51.423Z,8.00
2023-12-18T19:10:18.261Z,8.20
2023-12-18T19:12:45.083Z,7.55
2023-12-18T19:15:12.108Z,7.43
2023-12-18T19:17:40.738Z,8.38
2023-12-18T19:20:08.715Z,7.13
2023-12-18T19:22:35.423Z,5.65
2023-12-18T19:25:02.197Z,7.63
2023-12-18T19:27:28.892Z,7.35
2023-12-18T19:29:55.604Z,7.40
2023-12-18T19:32:22.436Z,6.97
2023-12-18T19:34:49.720Z,6.50
2023-12-18T19:37:16.515Z,7.55
2023-12-18T19:39:43.854Z,6.88
2023-12-18T19:42:10.645Z,7.30
2023-12-18T19:44:37.365Z,7.00
2023-12-18T19:47:04.411Z,6.93
2023-12-18T19:49:31.280Z,6.15
2023-12-18T19:51:58.092Z,5.88
2023-12-18T19:54:24.967Z,7.05
2023-12-18T19:56:52.099Z,6.32
2023-12-18T19:59:19.420Z,7.15
2023-12-18T20:01:47.725Z,6.18
2023-12-18T20:04:18.692Z,7.95
2023-12-18T20:06:45.933Z,6.43
2023-12-18T20:09:12.728Z,7.40
2023-12-18T20:11:40.022Z,7.07
2023-12-18T20:14:06.712Z,7.20
2023-12-18T20:16:33.411Z,7.88
2023-12-18T20:19:00.276Z,8.57
2023-12-18T20:21:27.135Z,6.22
2023-12-18T20:23:53.878Z,7.78
2023-12-18T20:26:20.630Z,7.60
2023-12-18T20:28:47.323Z,7.38
2023-12-18T20:31:14.147Z,8.73
2023-12-18T20:33:41.062Z,7.15
2023-12-18T20:36:08.165Z,7.63
2023-12-18T20:38:34.950Z,8.15
2023-12-18T20:41:01.715Z,8.00
2023-12-18T20:43:28.444Z,7.80
2023-12-18T20:45:55.234Z,7.15
2023-12-18T20:48:23.661Z,7.30
2023-12-18T20:50:51.012Z,7.38
2023-12-18T20:53:18.628Z,8.43
2023-12-18T20:55:46.206Z,7.85
2023-12-18T20:58:12.906Z,7.78
2023-12-18T21:00:39.679Z,7.38
2023-12-18T21:03:08.802Z,7.22
2023-12-18T21:05:36.055Z,7.60
2023-12-18T21:08:04.395Z,6.85
2023-12-18T21:10:31.359Z,7.97
2023-12-18T21:12:58.151Z,7.28
2023-12-18T21:15:24.889Z,8.23
2023-12-18T21:17:51.899Z,7.65
2023-12-18T21:20:18.777Z,7.63
2023-12-18T21:22:46.105Z,7.40
2023-12-18T21:25:13.454Z,7.00
2023-12-18T21:27:42.192Z,7.70
2023-12-18T21:30:10.318Z,6.90
2023-12-18T21:32:37.734Z,8.05
2023-12-18T21:35:04.879Z,7.05
2023-12-18T21:37:31.782Z,7.43
2023-12-18T21:39:58.558Z,7.82
2023-12-18T21:42:25.316Z,7.22
2023-12-18T21:44:51.992Z,7.82
2023-12-18T21:47:18.866Z,6.68
2023-12-18T21:49:45.766Z,6.53
2023-12-18T21:52:13.344Z,7.07
2023-12-18T21:54:40.259Z,6.93
2023-12-18T21:57:08.877Z,8.07
2023-12-18T21:59:35.594Z,7.32
2023-12-18T22:02:02.928Z,6.95
2023-12-18T22:04:29.746Z,7.10
2023-12-18T22:06:57.729Z,7.72
2023-12-18T22:09:24.537Z,6.95
2023-12-18T22:11:51.192Z,7.70
2023-12-18T22:14:17.953Z,9.27
2023-12-18T22:16:44.669Z,6.93
2023-12-18T22:19:11.533Z,7.68
2023-12-18T22:21:38.443Z,6.50
2023-12-18T22:24:05.592Z,7.93
2023-12-18T22:26:32.290Z,7.43
2023-12-18T22:28:59.027Z,7.25
2023-12-18T22:31:26.131Z,7.78
2023-12-18T22:33:53.009Z,7.97
2023-12-18T22:36:19.873Z,7.38
2023-12-18T22:38:52.477Z,7.97
2023-12-18T22:41:22.524Z,7.72
2023-12-18T22:43:49.191Z,8.43
2023-12-18T22:46:15.888Z,7.90
2023-12-18T22:48:42.709Z,7.50
2023-12-18T22:51:09.497Z,8.32
2023-12-18T22:53:36.456Z,7.68
2023-12-18T22:56:03.485Z,8.20
2023-12-18T22:58:30.231Z,7.78
2023-12-18T23:00:56.989Z,7.93
2023-12-18T23:03:23.850Z,8.80
2023-12-18T23:05:50.651Z,9.95
2023-12-18T23:08:17.500Z,8.38
2023-12-18T23:10:44.143Z,7.90
2023-12-18T23:13:11.011Z,8.63
2023-12-18T23:15:37.796Z,7.65
2023-12-18T23:18:04.838Z,6.78
2023-12-18T23:20:33.102Z,8.10
2023-12-18T23:22:59.829Z,8.70
2023-12-18T23:25:26.554Z,7.43
2023-12-18T23:27:53.277Z,8.15
2023-12-18T23:30:20.162Z,8.32
2023-12-18T23:32:47.273Z,8.18
2023-12-18T23:35:14.338Z,8.95
2023-12-18T23:37:41.057Z,8.60
2023-12-18T23:40:08.985Z,8.25
2023-12-18T23:42:35.727Z,9.50
2023-12-18T23:45:03.052Z,9.23
2023-12-18T23:47:30.057Z,9.23
2023-12-18T23:49:56.777Z,8.23
2023-12-18T23:52:23.474Z,8.13
2023-12-18T23:54:50.251Z,9.15
2023-12-18T23:57:17.052Z,7.50
2023-12-18T23:59:44.204Z,8.43
